createdAt,value
2022-08-19T00:00:10.087Z,18.70
2022-08-19T00:02:37.117Z,18.80
2022-08-19T00:05:05.195Z,18.70
2022-08-19T00:07:32.333Z,18.70
2022-08-19T00:09:59.321Z,18.70
2022-08-19T00:12:26.228Z,18.70
2022-08-19T00:14:55.033Z,18.70
2022-08-19T00:17:21.907Z,18.70
2022-08-19T00:19:48.822Z,18.70
2022-08-19T00:22:18.750Z,18.70
2022-08-19T00:24:50.924Z,18.70
2022-08-19T00:27:26.418Z,18.70
2022-08-19T00:29:54.325Z,18.70
2022-08-19T00:32:21.812Z,18.70
2022-08-19T00:34:49.131Z,18.70
2022-08-19T00:37:16.087Z,18.70
2022-08-19T00:39:43.055Z,18.70
2022-08-19T00:42:09.891Z,18.70
2022-08-19T00:44:36.758Z,18.70
2022-08-19T00:47:03.671Z,18.70
2022-08-19T00:49:46.504Z,18.70
2022-08-19T00:52:17.234Z,18.60
2022-08-19T00:54:47.781Z,18.60
2022-08-19T00:57:19.581Z,18.60
2022-08-19T00:59:58.766Z,18.60
2022-08-19T01:02:31.966Z,18.70
2022-08-19T01:05:01.285Z,18.70
2022-08-19T01:07:28.281Z,18.70
2022-08-19T01:10:03.766Z,18.60
2022-08-19T01:12:31.206Z,18.70
2022-08-19T01:14:59.474Z,18.60
2022-08-19T01:17:26.451Z,18.70
2022-08-19T01:19:53.427Z,18.70
2022-08-19T01:22:33.251Z,18.60
2022-08-19T01:25:01.030Z,18.60
2022-08-19T01:27:31.463Z,18.70
2022-08-19T01:30:12.627Z,18.60
2022-08-19T01:32:39.443Z,18.60
2022-08-19T01:35:07.390Z,18.60
2022-08-19T01:37:47.716Z,18.60
2022-08-19T01:40:15.964Z,18.60
2022-08-19T01:42:42.994Z,18.60
2022-08-19T01:45:10.383Z,18.60
2022-08-19T01:47:38.122Z,18.60
2022-08-19T01:50:07.636Z,18.50
2022-08-19T01:52:37.121Z,18.60
2022-08-19T01:55:06.866Z,18.60
2022-08-19T01:57:34.033Z,18.60
2022-08-19T02:00:04.618Z,18.50
2022-08-19T02:02:38.937Z,18.50
2022-08-19T02:05:08.021Z,18.50
2022-08-19T02:07:38.053Z,18.50
2022-08-19T02:10:12.304Z,18.50
2022-08-19T02:12:39.424Z,18.50
2022-08-19T02:15:07.052Z,18.40
2022-08-19T02:17:34.277Z,18.40
2022-08-19T02:20:01.368Z,18.40
2022-08-19T02:22:28.289Z,18.40
2022-08-19T02:24:55.728Z,18.40
2022-08-19T02:27:23.470Z,18.40
2022-08-19T02:29:51.601Z,18.40
2022-08-19T02:32:20.512Z,18.30
2022-08-19T02:34:48.539Z,18.30
2022-08-19T02:37:35.106Z,18.30
2022-08-19T02:40:02.475Z,18.30
2022-08-19T02:42:30.299Z,18.20
2022-08-19T02:44:57.659Z,18.20
2022-08-19T02:47:24.455Z,18.20
2022-08-19T02:49:51.266Z,18.20
2022-08-19T02:52:18.043Z,18.10
2022-08-19T02:54:45.186Z,18.10
2022-08-19T02:57:12.084Z,18.10
2022-08-19T02:59:38.895Z,18.10
2022-08-19T03:02:05.753Z,18.00
2022-08-19T03:04:32.526Z,18.00
2022-08-19T03:07:02.673Z,18.00
2022-08-19T03:09:38.618Z,18.00
2022-08-19T03:12:05.971Z,18.00
2022-08-19T03:14:33.944Z,17.90
2022-08-19T03:17:01.207Z,18.00
2022-08-19T03:19:28.552Z,18.00
2022-08-19T03:21:56.401Z,18.00
2022-08-19T03:24:23.156Z,18.00
2022-08-19T03:26:53.733Z,18.00
2022-08-19T03:29:30.083Z,18.00
2022-08-19T03:32:04.855Z,18.00
2022-08-19T03:34:35.114Z,18.00
2022-08-19T03:37:07.057Z,18.00
2022-08-19T03:39:34.013Z,18.00
2022-08-19T03:42:38.558Z,18.00
2022-08-19T03:44:50.660Z,18.00
2022-08-19T03:47:17.853Z,17.90
2022-08-19T03:49:45.470Z,17.90
2022-08-19T03:52:12.687Z,17.90
2022-08-19T03:54:40.518Z,17.90
2022-08-19T03:57:08.559Z,17.90
2022-08-19T03:59:37.477Z,18.00
2022-08-19T04:02:11.889Z,17.80
2022-08-19T04:04:41.132Z,17.90
2022-08-19T04:07:09.245Z,17.90
2022-08-19T04:09:37.550Z,17.90
2022-08-19T04:12:06.405Z,17.90
2022-08-19T04:14:34.660Z,17.90
2022-08-19T04:17:05.691Z,17.90
2022-08-19T04:19:34.572Z,17.90
2022-08-19T04:22:01.415Z,17.90
2022-08-19T04:24:28.479Z,17.90
2022-08-19T04:26:55.483Z,17.80
2022-08-19T04:29:26.237Z,17.80
2022-08-19T04:31:54.537Z,17.80
2022-08-19T04:34:24.338Z,17.80
2022-08-19T04:36:52.776Z,17.80
2022-08-19T04:39:23.838Z,17.90
2022-08-19T04:42:09.730Z,17.80
2022-08-19T04:44:38.963Z,17.80
2022-08-19T04:47:13.257Z,17.80
2022-08-19T04:49:40.071Z,17.80
2022-08-19T04:52:07.029Z,17.70
2022-08-19T04:54:38.460Z,17.80
2022-08-19T04:57:08.442Z,17.70
2022-08-19T04:59:36.589Z,17.70
2022-08-19T05:02:04.781Z,17.70
2022-08-19T05:04:32.827Z,17.70
2022-08-19T05:07:01.604Z,17.70
2022-08-19T05:09:55.449Z,17.80
2022-08-19T05:12:17.263Z,17.70
2022-08-19T05:14:47.001Z,17.70
2022-08-19T05:17:34.581Z,17.70
2022-08-19T05:20:20.911Z,17.70
2022-08-19T05:22:48.518Z,17.70
2022-08-19T05:25:19.972Z,17.80
2022-08-19T05:27:47.621Z,17.70
2022-08-19T05:30:14.802Z,17.70
2022-08-19T05:32:41.822Z,17.70
2022-08-19T05:35:09.218Z,17.70
2022-08-19T05:37:36.436Z,17.70
2022-08-19T05:40:04.732Z,17.70
2022-08-19T05:42:31.669Z,17.70
2022-08-19T05:44:58.469Z,17.70
2022-08-19T05:47:25.266Z,17.80
2022-08-19T05:49:52.223Z,17.80
2022-08-19T05:52:26.127Z,17.80
2022-08-19T05:54:56.525Z,17.80
2022-08-19T05:57:24.991Z,17.80
2022-08-19T05:59:57.652Z,17.80
2022-08-19T06:02:29.783Z,17.80
2022-08-19T06:04:56.600Z,17.80
2022-08-19T06:07:23.708Z,17.80
2022-08-19T06:09:54.482Z,17.80
2022-08-19T06:12:29.799Z,17.80
2022-08-19T06:15:00.985Z,17.80
2022-08-19T06:17:31.486Z,17.80
2022-08-19T06:19:59.788Z,17.80
2022-08-19T06:22:27.853Z,17.80
2022-08-19T06:24:56.196Z,17.80
2022-08-19T06:27:23.419Z,17.80
2022-08-19T06:29:50.423Z,17.90
2022-08-19T06:32:19.999Z,17.90
2022-08-19T06:34:47.056Z,17.90
2022-08-19T06:37:14.424Z,17.90
2022-08-19T06:39:43.217Z,17.90
2022-08-19T06:42:12.509Z,17.90
2022-08-19T06:44:43.293Z,18.00
2022-08-19T06:47:14.522Z,18.00
2022-08-19T06:49:49.780Z,18.00
2022-08-19T06:52:16.968Z,18.00
2022-08-19T06:54:55.796Z,18.10
2022-08-19T06:57:25.331Z,18.00
2022-08-19T06:59:52.717Z,18.20
2022-08-19T07:02:21.567Z,18.20
2022-08-19T07:04:48.870Z,18.20
2022-08-19T07:07:21.518Z,18.20
2022-08-19T07:09:52.193Z,18.20
2022-08-19T07:12:33.938Z,18.20
2022-08-19T07:15:05.069Z,18.20
2022-08-19T07:17:34.585Z,18.30
2022-08-19T07:20:05.373Z,18.30
2022-08-19T07:22:40.907Z,18.30
2022-08-19T07:25:09.914Z,18.30
2022-08-19T07:27:39.527Z,18.30
2022-08-19T07:30:11.606Z,18.30
2022-08-19T07:32:39.724Z,18.40
2022-08-19T07:35:07.257Z,18.40
2022-08-19T07:37:36.081Z,18.40
2022-08-19T07:40:04.267Z,18.40
2022-08-19T07:42:31.175Z,18.40
2022-08-19T07:44:59.271Z,18.40
2022-08-19T07:47:50.120Z,18.40
2022-08-19T07:50:13.876Z,18.40
2022-08-19T07:52:41.100Z,18.50
2022-08-19T07:55:11.459Z,18.50
2022-08-19T07:57:58.287Z,18.50
2022-08-19T08:00:25.752Z,18.50
2022-08-19T08:02:55.485Z,18.50
2022-08-19T08:05:44.874Z,18.50
2022-08-19T08:08:33.564Z,18.50
2022-08-19T08:11:01.070Z,18.50
2022-08-19T08:13:28.898Z,18.50
2022-08-19T08:15:57.091Z,18.50
2022-08-19T08:18:30.308Z,18.50
2022-08-19T08:20:58.329Z,18.50
2022-08-19T08:23:26.897Z,18.60
2022-08-19T08:25:56.485Z,18.50
2022-08-19T08:28:26.179Z,18.60
2022-08-19T08:30:56.590Z,18.60
2022-08-19T08:33:33.259Z,18.60
2022-08-19T08:36:03.782Z,18.60
2022-08-19T08:38:36.946Z,18.60
2022-08-19T08:41:29.076Z,18.40
2022-08-19T08:43:58.158Z,18.50
2022-08-19T08:46:42.636Z,18.50
2022-08-19T08:49:44.953Z,18.60
2022-08-19T08:52:23.233Z,18.60
2022-08-19T08:54:56.058Z,18.60
2022-08-19T08:57:38.054Z,18.60
2022-08-19T09:00:17.575Z,18.70
2022-08-19T09:02:45.199Z,18.70
2022-08-19T09:05:19.453Z,18.70
2022-08-19T09:08:12.120Z,18.70
2022-08-19T09:10:55.672Z,18.80
2022-08-19T09:14:03.150Z,18.70
2022-08-19T09:16:30.773Z,18.80
2022-08-19T09:19:06.462Z,18.90
2022-08-19T09:21:34.344Z,18.90
2022-08-19T09:24:03.346Z,19.00
2022-08-19T09:26:47.844Z,19.00
2022-08-19T09:29:19.924Z,19.00
2022-08-19T09:31:50.821Z,19.00
2022-08-19T09:34:21.541Z,19.00
2022-08-19T09:36:56.193Z,19.10
2022-08-19T09:39:23.104Z,19.10
2022-08-19T09:41:51.036Z,19.20
2022-08-19T09:44:19.235Z,19.10
2022-08-19T09:46:48.247Z,19.30
2022-08-19T09:49:19.801Z,19.30
2022-08-19T09:51:51.526Z,19.40
2022-08-19T09:54:23.543Z,19.40
2022-08-19T09:56:51.144Z,19.50
2022-08-19T09:59:17.952Z,19.50
2022-08-19T10:01:44.825Z,19.50
2022-08-19T10:04:14.640Z,19.50
2022-08-19T10:06:48.621Z,19.60
2022-08-19T10:09:26.098Z,19.60
2022-08-19T10:12:02.741Z,19.70
2022-08-19T10:14:30.193Z,19.70
2022-08-19T10:16:57.549Z,19.80
2022-08-19T10:19:26.526Z,19.80
2022-08-19T10:21:55.724Z,19.90
2022-08-19T10:24:28.616Z,19.90
2022-08-19T10:26:58.781Z,20.00
2022-08-19T10:29:32.693Z,20.00
2022-08-19T10:32:03.069Z,20.00
2022-08-19T10:34:31.650Z,20.10
2022-08-19T10:37:02.093Z,20.10
2022-08-19T10:39:41.152Z,20.20
2022-08-19T10:42:14.583Z,20.20
2022-08-19T10:44:42.585Z,20.20
2022-08-19T10:47:17.392Z,20.20
2022-08-19T10:50:11.949Z,20.20
2022-08-19T10:52:49.875Z,20.30
2022-08-19T10:55:40.768Z,20.20
2022-08-19T10:58:16.066Z,20.20
2022-08-19T11:00:46.585Z,20.20
2022-08-19T11:03:13.705Z,20.20
2022-08-19T11:05:40.947Z,20.20
2022-08-19T11:08:23.538Z,20.30
2022-08-19T11:11:01.649Z,20.20
2022-08-19T11:13:31.009Z,20.40
2022-08-19T11:16:07.125Z,20.40
2022-08-19T11:18:37.326Z,20.40
2022-08-19T11:21:25.530Z,20.40
2022-08-19T11:23:56.412Z,20.40
2022-08-19T11:26:25.081Z,20.50
2022-08-19T11:28:55.202Z,20.50
2022-08-19T11:31:29.262Z,20.50
2022-08-19T11:34:01.017Z,20.60
2022-08-19T11:36:29.009Z,20.70
2022-08-19T11:38:56.126Z,20.70
2022-08-19T11:41:24.373Z,20.80
2022-08-19T11:43:54.703Z,20.90
2022-08-19T11:46:23.353Z,20.90
2022-08-19T11:48:51.597Z,21.00
2022-08-19T11:51:22.699Z,21.10
2022-08-19T11:53:51.280Z,21.20
2022-08-19T11:56:19.886Z,21.30
2022-08-19T11:58:47.041Z,21.40
2022-08-19T12:01:16.973Z,21.50
2022-08-19T12:03:48.510Z,21.50
2022-08-19T12:06:19.961Z,21.70
2022-08-19T12:08:48.405Z,21.80
2022-08-19T12:11:15.990Z,21.80
2022-08-19T12:13:45.886Z,21.90
2022-08-19T12:16:21.769Z,22.00
2022-08-19T12:18:49.116Z,22.10
2022-08-19T12:21:30.982Z,22.20
2022-08-19T12:23:59.619Z,22.30
2022-08-19T12:26:28.760Z,22.30
2022-08-19T12:28:55.923Z,22.40
2022-08-19T12:31:22.774Z,22.50
2022-08-19T12:33:49.709Z,22.60
2022-08-19T12:36:18.736Z,22.70
2022-08-19T12:38:46.302Z,22.80
2022-08-19T12:41:19.170Z,22.80
2022-08-19T12:43:47.527Z,22.90
2022-08-19T12:46:15.165Z,23.00
2022-08-19T12:48:45.950Z,23.20
2022-08-19T12:51:20.293Z,23.20
2022-08-19T12:53:47.917Z,23.30
2022-08-19T12:56:15.738Z,23.30
2022-08-19T12:58:48.967Z,23.50
2022-08-19T13:01:21.958Z,23.60
2022-08-19T13:03:51.038Z,23.70
2022-08-19T13:06:19.576Z,23.70
2022-08-19T13:08:47.521Z,23.70
2022-08-19T13:11:19.959Z,23.70
2022-08-19T13:13:49.731Z,23.80
2022-08-19T13:16:17.330Z,23.90
2022-08-19T13:18:48.295Z,23.90
2022-08-19T13:21:15.504Z,24.00
2022-08-19T13:23:43.216Z,24.00
2022-08-19T13:26:12.547Z,24.10
2022-08-19T13:28:58.918Z,24.20
2022-08-19T13:31:46.266Z,24.30
2022-08-19T13:34:13.975Z,24.40
2022-08-19T13:36:40.909Z,24.40
2022-08-19T13:39:09.515Z,24.50
2022-08-19T13:41:37.695Z,24.50
2022-08-19T13:44:07.258Z,24.60
2022-08-19T13:46:34.098Z,24.70
2022-08-19T13:49:01.035Z,24.70
2022-08-19T13:51:28.187Z,24.70
2022-08-19T13:53:56.315Z,24.70
2022-08-19T13:56:26.306Z,24.70
2022-08-19T13:58:54.346Z,24.70
2022-08-19T14:01:24.606Z,24.60
2022-08-19T14:03:51.781Z,24.70
2022-08-19T14:06:19.339Z,24.70
2022-08-19T14:08:48.092Z,24.60
2022-08-19T14:11:14.999Z,24.70
2022-08-19T14:13:42.276Z,24.70
2022-08-19T14:16:14.058Z,24.80
2022-08-19T14:18:42.300Z,24.80
2022-08-19T14:21:21.029Z,24.90
2022-08-19T14:23:48.282Z,25.00
2022-08-19T14:26:19.058Z,25.00
2022-08-19T14:28:46.463Z,25.00
2022-08-19T14:31:19.443Z,25.00
2022-08-19T14:33:48.177Z,25.10
2022-08-19T14:36:15.370Z,25.20
2022-08-19T14:38:42.923Z,25.20
2022-08-19T14:41:20.275Z,25.20
2022-08-19T14:43:49.702Z,25.20
2022-08-19T14:46:20.664Z,25.20
2022-08-19T14:48:51.705Z,25.20
2022-08-19T14:51:21.825Z,25.20
2022-08-19T14:53:52.295Z,25.20
2022-08-19T14:56:22.465Z,25.20
2022-08-19T14:58:53.192Z,25.30
2022-08-19T15:01:23.220Z,25.30
2022-08-19T15:03:50.816Z,25.40
2022-08-19T15:06:18.357Z,25.40
2022-08-19T15:08:47.299Z,25.40
2022-08-19T15:11:17.517Z,25.40
2022-08-19T15:13:45.639Z,25.40
2022-08-19T15:16:19.643Z,25.40
2022-08-19T15:18:50.660Z,25.40
2022-08-19T15:21:27.202Z,25.40
2022-08-19T15:23:57.499Z,25.50
2022-08-19T15:26:27.369Z,25.50
2022-08-19T15:28:54.627Z,25.50
2022-08-19T15:31:28.399Z,25.60
2022-08-19T15:33:58.848Z,25.60
2022-08-19T15:36:26.981Z,25.70
2022-08-19T15:38:57.749Z,25.80
2022-08-19T15:41:30.536Z,25.80
2022-08-19T15:44:00.479Z,25.90
2022-08-19T15:46:31.383Z,25.90
2022-08-19T15:49:00.187Z,25.90
2022-08-19T15:51:30.674Z,25.90
2022-08-19T15:53:59.628Z,26.00
2022-08-19T15:56:27.565Z,26.00
2022-08-19T15:59:13.220Z,26.00
2022-08-19T16:01:58.944Z,26.10
2022-08-19T16:04:44.333Z,26.10
2022-08-19T16:07:12.645Z,26.30
2022-08-19T16:09:39.729Z,26.40
2022-08-19T16:12:06.959Z,26.50
2022-08-19T16:14:35.972Z,26.50
2022-08-19T16:17:03.021Z,26.60
2022-08-19T16:19:32.452Z,26.60
2022-08-19T16:21:59.256Z,26.70
2022-08-19T16:24:27.957Z,26.70
2022-08-19T16:26:55.786Z,26.70
2022-08-19T16:29:34.040Z,26.70
2022-08-19T16:32:13.175Z,26.70
2022-08-19T16:34:41.386Z,26.70
2022-08-19T16:37:10.008Z,26.60
2022-08-19T16:39:37.470Z,26.60
2022-08-19T16:42:07.405Z,26.50
2022-08-19T16:44:35.263Z,26.60
2022-08-19T16:47:02.205Z,26.50
2022-08-19T16:49:54.504Z,26.50
2022-08-19T16:52:17.907Z,26.40
2022-08-19T16:54:45.014Z,26.30
2022-08-19T16:57:12.850Z,26.20
2022-08-19T16:59:44.121Z,26.10
2022-08-19T17:02:16.123Z,26.10
2022-08-19T17:04:42.868Z,26.00
2022-08-19T17:07:10.750Z,26.00
2022-08-19T17:09:38.406Z,26.00
2022-08-19T17:12:05.714Z,26.00
2022-08-19T17:14:32.586Z,26.10
2022-08-19T17:16:59.494Z,26.10
2022-08-19T17:19:27.330Z,26.10
2022-08-19T17:21:54.496Z,26.10
2022-08-19T17:24:21.381Z,26.20
2022-08-19T17:26:48.187Z,26.20
2022-08-19T17:29:15.174Z,26.20
2022-08-19T17:31:41.939Z,26.20
2022-08-19T17:34:09.223Z,26.20
2022-08-19T17:36:36.237Z,26.10
2022-08-19T17:39:05.106Z,26.10
2022-08-19T17:41:34.147Z,26.10
2022-08-19T17:44:06.031Z,26.10
2022-08-19T17:46:35.790Z,26.00
2022-08-19T17:49:02.915Z,25.90
2022-08-19T17:51:32.749Z,25.90
2022-08-19T17:54:00.402Z,25.90
2022-08-19T17:56:28.746Z,25.80
2022-08-19T17:59:00.675Z,25.80
2022-08-19T18:01:40.289Z,25.70
2022-08-19T18:04:17.198Z,25.70
2022-08-19T18:06:46.911Z,25.60
2022-08-19T18:09:28.614Z,25.60
2022-08-19T18:12:07.059Z,25.50
2022-08-19T18:14:36.949Z,25.40
2022-08-19T18:17:09.552Z,25.30
2022-08-19T18:19:47.837Z,25.20
2022-08-19T18:22:31.226Z,25.10
2022-08-19T18:24:59.128Z,25.00
2022-08-19T18:27:27.679Z,24.90
2022-08-19T18:29:59.390Z,24.80
2022-08-19T18:32:32.648Z,24.80
2022-08-19T18:35:01.822Z,24.70
2022-08-19T18:37:29.275Z,24.60
2022-08-19T18:40:14.802Z,24.60
2022-08-19T18:43:05.055Z,24.40
2022-08-19T18:45:50.714Z,24.40
2022-08-19T18:48:36.080Z,24.30
2022-08-19T18:51:03.171Z,24.20
2022-08-19T18:53:34.125Z,24.10
2022-08-19T18:56:01.434Z,24.00
2022-08-19T18:58:34.781Z,24.00
2022-08-19T19:01:15.343Z,24.00
2022-08-19T19:03:46.678Z,23.90
2022-08-19T19:06:20.156Z,23.90
2022-08-19T19:08:48.268Z,23.80
2022-08-19T19:11:21.257Z,23.80
2022-08-19T19:13:49.485Z,23.70
2022-08-19T19:16:16.366Z,23.70
2022-08-19T19:18:44.418Z,23.70
2022-08-19T19:21:12.214Z,23.70
2022-08-19T19:23:40.951Z,23.60
2022-08-19T19:26:13.037Z,23.50
2022-08-19T19:28:45.578Z,23.40
2022-08-19T19:31:19.350Z,23.40
2022-08-19T19:33:46.686Z,23.30
2022-08-19T19:36:14.107Z,23.20
2022-08-19T19:38:48.280Z,23.20
2022-08-19T19:41:17.996Z,23.10
2022-08-19T19:43:44.888Z,23.10
2022-08-19T19:46:12.489Z,23.10
2022-08-19T19:48:39.362Z,23.10
2022-08-19T19:51:06.360Z,23.00
2022-08-19T19:53:33.822Z,23.00
2022-08-19T19:56:02.377Z,22.90
2022-08-19T19:58:31.016Z,22.90
2022-08-19T20:01:03.823Z,22.80
2022-08-19T20:03:36.945Z,22.80
2022-08-19T20:06:04.098Z,22.80
2022-08-19T20:08:49.440Z,22.80
2022-08-19T20:11:45.994Z,22.60
2022-08-19T20:14:22.523Z,22.70
2022-08-19T20:16:51.244Z,22.60
2022-08-19T20:19:20.547Z,22.60
2022-08-19T20:21:51.363Z,22.50
2022-08-19T20:24:22.572Z,22.50
2022-08-19T20:26:51.557Z,22.50
2022-08-19T20:29:38.471Z,22.50
2022-08-19T20:32:08.182Z,22.40
2022-08-19T20:34:35.187Z,22.50
2022-08-19T20:37:03.276Z,22.40
2022-08-19T20:39:30.798Z,22.40
2022-08-19T20:41:57.596Z,22.40
2022-08-19T20:44:26.998Z,22.40
2022-08-19T20:46:56.158Z,22.40
2022-08-19T20:49:27.273Z,22.40
2022-08-19T20:51:58.351Z,22.30
2022-08-19T20:54:26.880Z,22.30
2022-08-19T20:56:54.050Z,22.20
2022-08-19T20:59:21.829Z,22.20
2022-08-19T21:01:51.803Z,22.20
2022-08-19T21:04:22.041Z,22.20
2022-08-19T21:06:50.317Z,22.20
2022-08-19T21:09:17.255Z,22.20
2022-08-19T21:11:44.214Z,22.10
2022-08-19T21:14:11.102Z,22.10
2022-08-19T21:16:37.903Z,22.10
2022-08-19T21:19:05.172Z,22.20
2022-08-19T21:21:33.157Z,22.10
2022-08-19T21:24:00.145Z,22.10
2022-08-19T21:26:27.702Z,22.10
2022-08-19T21:28:54.624Z,22.00
2022-08-19T21:31:21.690Z,22.00
2022-08-19T21:33:48.663Z,22.00
2022-08-19T21:36:15.698Z,22.00
2022-08-19T21:38:42.577Z,21.90
2022-08-19T21:41:09.376Z,22.00
2022-08-19T21:43:37.681Z,21.90
2022-08-19T21:46:05.280Z,21.80
2022-08-19T21:48:32.824Z,21.80
2022-08-19T21:50:59.643Z,21.90
2022-08-19T21:53:31.529Z,21.90
2022-08-19T21:56:01.611Z,21.80
2022-08-19T21:58:30.629Z,21.70
2022-08-19T22:01:05.512Z,21.60
2022-08-19T22:03:33.743Z,21.50
2022-08-19T22:06:00.645Z,21.60
2022-08-19T22:08:27.495Z,21.60
2022-08-19T22:10:55.044Z,21.60
2022-08-19T22:13:26.593Z,21.60
2022-08-19T22:15:55.318Z,21.50
2022-08-19T22:18:22.212Z,21.50
2022-08-19T22:20:49.109Z,21.50
2022-08-19T22:23:16.129Z,21.40
2022-08-19T22:25:47.277Z,21.40
2022-08-19T22:28:19.093Z,21.40
2022-08-19T22:30:57.394Z,21.30
2022-08-19T22:33:26.119Z,21.30
2022-08-19T22:35:53.223Z,21.30
2022-08-19T22:38:20.414Z,21.30
2022-08-19T22:40:49.323Z,21.20
2022-08-19T22:43:22.802Z,21.20
2022-08-19T22:45:50.970Z,21.20
2022-08-19T22:48:19.507Z,21.10
2022-08-19T22:51:07.737Z,21.10
2022-08-19T22:53:37.069Z,21.10
2022-08-19T22:56:06.328Z,21.00
2022-08-19T22:58:33.500Z,21.00
2022-08-19T23:01:01.816Z,20.80
2022-08-19T23:03:29.253Z,20.80
2022-08-19T23:05:56.670Z,20.80
2022-08-19T23:08:24.213Z,20.80
2022-08-19T23:10:54.929Z,20.80
2022-08-19T23:13:21.993Z,20.70
2022-08-19T23:15:49.337Z,20.70
2022-08-19T23:18:17.103Z,20.70
2022-08-19T23:20:44.768Z,20.60
2022-08-19T23:23:18.840Z,20.60
2022-08-19T23:25:48.621Z,20.60
2022-08-19T23:28:33.942Z,20.60
2022-08-19T23:31:01.992Z,20.50
2022-08-19T23:33:46.862Z,20.50
2022-08-19T23:36:20.241Z,20.50
2022-08-19T23:38:49.557Z,20.50
2022-08-19T23:41:18.478Z,20.50
2022-08-19T23:43:46.325Z,20.50
2022-08-19T23:46:28.003Z,20.50
2022-08-19T23:48:56.552Z,20.50
2022-08-19T23:51:23.517Z,20.40
2022-08-19T23:53:50.400Z,20.40
2022-08-19T23:56:17.238Z,20.30
2022-08-19T23:58:43.991Z,20.30
